createdAt,value
2023-03-24T00:00:24.279Z,28.90
2023-03-24T00:02:52.202Z,28.70
2023-03-24T00:05:21.809Z,28.40
2023-03-24T00:07:54.508Z,27.70
2023-03-24T00:10:23.050Z,27.10
2023-03-24T00:12:51.805Z,26.90
2023-03-24T00:15:22.113Z,27.10
2023-03-24T00:17:50.762Z,27.30
2023-03-24T00:20:22.365Z,27.20
2023-03-24T00:22:57.171Z,27.30
2023-03-24T00:25:36.311Z,27.40
2023-03-24T00:28:06.055Z,27.20
2023-03-24T00:30:36.550Z,27.00
2023-03-24T00:33:04.453Z,27.20
2023-03-24T00:35:31.686Z,27.30
2023-03-24T00:37:58.805Z,27.10
2023-03-24T00:40:25.916Z,27.00
2023-03-24T00:42:53.115Z,26.00
2023-03-24T00:45:25.342Z,26.00
2023-03-24T00:47:58.160Z,25.70
2023-03-24T00:50:27.204Z,26.10
2023-03-24T00:52:55.786Z,26.20
2023-03-24T00:55:25.451Z,26.40
2023-03-24T00:57:52.524Z,26.20
2023-03-24T01:00:24.512Z,25.90
2023-03-24T01:02:54.314Z,25.70
2023-03-24T01:05:28.593Z,25.70
2023-03-24T01:08:06.335Z,25.50
2023-03-24T01:10:42.954Z,25.50
2023-03-24T01:13:10.508Z,25.70
2023-03-24T01:15:38.446Z,25.80
2023-03-24T01:18:05.998Z,26.60
2023-03-24T01:20:33.532Z,26.80
2023-03-24T01:23:02.264Z,27.20
2023-03-24T01:25:30.689Z,27.30
2023-03-24T01:27:58.203Z,27.40
2023-03-24T01:30:27.810Z,27.10
2023-03-24T01:32:55.440Z,27.20
2023-03-24T01:35:23.702Z,27.30
2023-03-24T01:37:51.120Z,27.30
2023-03-24T01:40:24.530Z,27.60
2023-03-24T01:42:52.485Z,27.30
2023-03-24T01:45:51.364Z,27.20
2023-03-24T01:48:30.434Z,27.10
2023-03-24T01:51:06.150Z,27.30
2023-03-24T01:53:35.601Z,27.20
2023-03-24T01:56:05.433Z,27.00
2023-03-24T01:58:34.517Z,26.90
2023-03-24T02:01:01.642Z,26.80
2023-03-24T02:03:34.206Z,26.90
2023-03-24T02:06:02.714Z,26.80
2023-03-24T02:08:29.961Z,27.00
2023-03-24T02:10:58.373Z,27.20
2023-03-24T02:13:25.509Z,27.20
2023-03-24T02:16:22.902Z,27.00
2023-03-24T02:19:44.944Z,27.30
2023-03-24T02:22:46.752Z,27.30
2023-03-24T02:25:19.378Z,27.40
2023-03-24T02:28:16.366Z,27.30
2023-03-24T02:31:07.645Z,26.90
2023-03-24T02:33:53.190Z,27.00
2023-03-24T02:36:38.942Z,26.60
2023-03-24T02:39:26.046Z,26.70
2023-03-24T02:41:58.980Z,26.70
2023-03-24T02:44:43.820Z,26.50
2023-03-24T02:47:19.493Z,26.60
2023-03-24T02:49:58.583Z,26.50
2023-03-24T02:52:34.605Z,26.50
2023-03-24T02:55:12.561Z,27.20
2023-03-24T02:58:00.988Z,27.90
2023-03-24T03:00:48.532Z,28.00
2023-03-24T03:03:19.620Z,28.20
2023-03-24T03:05:53.371Z,28.00
2023-03-24T03:08:23.392Z,27.80
2023-03-24T03:10:53.635Z,27.60
2023-03-24T03:13:31.033Z,27.70
2023-03-24T03:16:04.592Z,27.40
2023-03-24T03:18:33.650Z,27.80
2023-03-24T03:21:18.203Z,28.30
2023-03-24T03:24:03.066Z,28.40
2023-03-24T03:26:32.980Z,28.40
2023-03-24T03:29:05.372Z,28.70
2023-03-24T03:31:41.898Z,28.90
2023-03-24T03:34:32.130Z,29.20
2023-03-24T03:37:33.071Z,29.30
2023-03-24T03:40:09.982Z,29.30
2023-03-24T03:42:37.246Z,29.20
2023-03-24T03:45:04.870Z,29.30
2023-03-24T03:47:33.810Z,29.40
2023-03-24T03:50:02.606Z,29.60
2023-03-24T03:52:30.568Z,29.50
2023-03-24T03:55:01.464Z,29.30
2023-03-24T03:57:28.641Z,29.10
2023-03-24T03:59:56.681Z,28.80
2023-03-24T04:03:05.526Z,29.20
2023-03-24T04:05:38.619Z,29.40
2023-03-24T04:08:45.395Z,30.20
2023-03-24T04:11:46.836Z,30.50
2023-03-24T04:14:29.146Z,31.00
2023-03-24T04:17:07.194Z,31.20
2023-03-24T04:20:17.161Z,30.50
2023-03-24T04:23:18.350Z,31.00
2023-03-24T04:25:50.068Z,30.60
2023-03-24T04:28:26.634Z,31.00
2023-03-24T04:31:34.411Z,30.50
2023-03-24T04:34:12.259Z,30.30
2023-03-24T04:36:46.087Z,30.40
2023-03-24T04:39:17.798Z,29.90
2023-03-24T04:41:47.587Z,30.20
2023-03-24T04:44:17.727Z,30.40
2023-03-24T04:46:44.824Z,30.40
2023-03-24T04:49:12.055Z,30.70
2023-03-24T04:51:39.346Z,30.50
2023-03-24T04:54:06.445Z,30.50
2023-03-24T04:56:44.161Z,30.20
2023-03-24T04:59:13.057Z,30.90
2023-03-24T05:01:40.641Z,31.00
2023-03-24T05:04:08.618Z,31.00
2023-03-24T05:06:35.927Z,30.40
2023-03-24T05:09:04.716Z,31.20
2023-03-24T05:11:32.060Z,31.80
2023-03-24T05:13:59.085Z,31.50
2023-03-24T05:16:26.442Z,32.20
2023-03-24T05:18:53.559Z,32.30
2023-03-24T05:21:20.841Z,32.80
2023-03-24T05:23:47.853Z,32.70
2023-03-24T05:26:14.970Z,32.40
2023-03-24T05:28:41.975Z,32.50
2023-03-24T05:31:09.023Z,31.80
2023-03-24T05:33:36.173Z,32.40
2023-03-24T05:36:03.508Z,32.00
2023-03-24T05:38:30.784Z,31.90
2023-03-24T05:40:59.326Z,32.00
2023-03-24T05:43:27.095Z,31.70
2023-03-24T05:45:56.273Z,32.20
2023-03-24T05:48:23.711Z,32.90
2023-03-24T05:50:51.690Z,32.40
2023-03-24T05:53:18.776Z,32.70
2023-03-24T05:55:46.616Z,32.10
2023-03-24T05:58:13.763Z,31.60
2023-03-24T06:00:40.856Z,31.60
2023-03-24T06:03:08.124Z,31.00
2023-03-24T06:05:36.048Z,31.20
2023-03-24T06:08:03.998Z,31.80
2023-03-24T06:10:31.010Z,32.00
2023-03-24T06:12:58.229Z,31.70
2023-03-24T06:15:28.100Z,31.80
2023-03-24T06:17:55.641Z,32.10
2023-03-24T06:20:23.149Z,32.30
2023-03-24T06:22:50.460Z,32.30
2023-03-24T06:25:21.889Z,32.30
2023-03-24T06:27:49.008Z,32.70
2023-03-24T06:30:17.778Z,32.90
2023-03-24T06:32:47.974Z,33.40
2023-03-24T06:35:17.255Z,33.20
2023-03-24T06:37:44.820Z,34.70
2023-03-24T06:40:15.534Z,35.10
2023-03-24T06:42:42.749Z,34.40
2023-03-24T06:45:10.936Z,34.10
2023-03-24T06:47:38.559Z,34.50
2023-03-24T06:50:07.754Z,34.90
2023-03-24T06:52:35.735Z,34.20
2023-03-24T06:55:03.615Z,33.10
2023-03-24T06:57:31.143Z,33.40
2023-03-24T06:59:58.218Z,33.10
2023-03-24T07:02:25.448Z,33.30
2023-03-24T07:04:55.184Z,33.40
2023-03-24T07:08:06.048Z,34.10
2023-03-24T07:10:10.615Z,34.20
2023-03-24T07:12:38.162Z,34.90
2023-03-24T07:15:07.384Z,34.90
2023-03-24T07:17:34.771Z,34.80
2023-03-24T07:20:02.168Z,33.80
2023-03-24T07:22:29.240Z,34.30
2023-03-24T07:24:58.314Z,35.70
2023-03-24T07:27:25.350Z,36.20
2023-03-24T07:29:55.073Z,35.30
2023-03-24T07:32:22.295Z,35.10
2023-03-24T07:34:49.753Z,34.40
2023-03-24T07:37:16.843Z,34.10
2023-03-24T07:39:43.861Z,34.30
2023-03-24T07:42:12.538Z,35.90
2023-03-24T07:44:40.168Z,35.40
2023-03-24T07:47:07.293Z,36.30
2023-03-24T07:49:34.310Z,36.20
2023-03-24T07:52:06.572Z,36.40
2023-03-24T07:54:35.365Z,34.90
2023-03-24T07:57:02.483Z,35.00
2023-03-24T07:59:29.950Z,34.80
2023-03-24T08:01:59.725Z,34.70
2023-03-24T08:04:28.815Z,35.20
2023-03-24T08:06:56.060Z,35.90
2023-03-24T08:09:24.343Z,36.10
2023-03-24T08:11:51.395Z,36.80
2023-03-24T08:14:19.485Z,37.30
2023-03-24T08:16:47.643Z,37.00
2023-03-24T08:19:14.853Z,38.00
2023-03-24T08:21:41.954Z,37.70
2023-03-24T08:24:09.220Z,37.20
2023-03-24T08:26:36.363Z,37.30
2023-03-24T08:29:03.688Z,38.70
2023-03-24T08:31:35.692Z,38.90
2023-03-24T08:34:04.586Z,38.00
2023-03-24T08:36:31.927Z,37.70
2023-03-24T08:38:59.861Z,37.50
2023-03-24T08:41:35.230Z,37.90
2023-03-24T08:44:07.740Z,38.50
2023-03-24T08:46:35.178Z,38.80
2023-03-24T08:49:02.839Z,38.00
2023-03-24T08:51:29.950Z,37.60
2023-03-24T08:53:57.490Z,40.00
2023-03-24T08:56:26.481Z,39.60
2023-03-24T08:58:54.038Z,38.50
2023-03-24T09:01:23.343Z,38.60
2023-03-24T09:03:50.777Z,39.50
2023-03-24T09:06:18.177Z,38.70
2023-03-24T09:08:46.067Z,39.40
2023-03-24T09:11:18.842Z,38.40
2023-03-24T09:13:47.127Z,39.10
2023-03-24T09:16:14.894Z,39.60
2023-03-24T09:18:42.969Z,39.60
2023-03-24T09:21:10.495Z,40.00
2023-03-24T09:23:37.688Z,39.60
2023-03-24T09:26:05.680Z,39.20
2023-03-24T09:28:32.927Z,39.30
2023-03-24T09:31:02.286Z,39.00
2023-03-24T09:33:30.575Z,38.60
2023-03-24T09:36:00.510Z,39.60
2023-03-24T09:38:28.937Z,40.00
2023-03-24T09:41:03.524Z,40.30
2023-03-24T09:43:39.855Z,39.90
2023-03-24T09:46:14.544Z,40.00
2023-03-24T09:49:04.159Z,40.70
2023-03-24T09:51:39.894Z,40.40
2023-03-24T09:54:28.068Z,39.70
2023-03-24T09:56:57.109Z,40.20
2023-03-24T09:59:38.058Z,40.70
2023-03-24T10:02:14.134Z,39.60
2023-03-24T10:04:41.255Z,40.40
2023-03-24T10:07:21.202Z,41.60
2023-03-24T10:09:58.000Z,41.00
2023-03-24T10:12:40.423Z,41.10
2023-03-24T10:15:49.591Z,41.70
2023-03-24T10:18:12.652Z,41.90
2023-03-24T10:20:56.905Z,42.20
2023-03-24T10:23:50.502Z,43.60
2023-03-24T10:26:44.839Z,45.80
2023-03-24T10:29:33.836Z,44.30
2023-03-24T10:32:22.532Z,42.50
2023-03-24T10:34:57.677Z,42.30
2023-03-24T10:37:24.828Z,41.20
2023-03-24T10:39:52.239Z,41.90
2023-03-24T10:42:25.883Z,41.80
2023-03-24T10:44:53.625Z,43.00
2023-03-24T10:47:33.784Z,43.40
2023-03-24T10:50:12.495Z,44.80
2023-03-24T10:52:49.007Z,45.40
2023-03-24T10:55:20.607Z,44.80
2023-03-24T10:57:51.231Z,46.00
2023-03-24T11:00:29.729Z,46.60
2023-03-24T11:02:59.052Z,46.50
2023-03-24T11:05:35.756Z,46.20
2023-03-24T11:08:17.930Z,46.20
2023-03-24T11:10:46.244Z,45.40
2023-03-24T11:13:23.471Z,45.50
2023-03-24T11:16:15.276Z,46.10
2023-03-24T11:18:57.318Z,45.50
2023-03-24T11:21:24.977Z,45.80
2023-03-24T11:23:53.451Z,45.50
2023-03-24T11:26:28.535Z,45.10
2023-03-24T11:28:59.121Z,45.60
2023-03-24T11:31:30.947Z,45.50
2023-03-24T11:34:01.432Z,45.00
2023-03-24T11:36:31.983Z,43.40
2023-03-24T11:39:01.658Z,42.50
2023-03-24T11:41:28.898Z,41.80
2023-03-24T11:44:14.362Z,41.50
2023-03-24T11:46:43.669Z,42.20
2023-03-24T11:49:16.597Z,42.10
2023-03-24T11:51:47.294Z,41.90
2023-03-24T11:54:18.449Z,41.60
2023-03-24T11:56:54.970Z,40.90
2023-03-24T11:59:37.107Z,39.00
2023-03-24T12:02:21.987Z,38.20
2023-03-24T12:04:51.952Z,37.80
2023-03-24T12:07:46.791Z,37.90
2023-03-24T12:10:36.952Z,37.40
2023-03-24T12:13:22.033Z,36.70
2023-03-24T12:16:31.010Z,34.70
2023-03-24T12:19:43.136Z,33.00
2023-03-24T12:22:10.158Z,32.60
2023-03-24T12:24:49.558Z,31.60
2023-03-24T12:27:35.366Z,31.50
2023-03-24T12:30:18.088Z,30.50
2023-03-24T12:33:04.693Z,30.90
2023-03-24T12:35:39.803Z,30.30
2023-03-24T12:38:15.563Z,29.50
2023-03-24T12:41:13.537Z,29.70
2023-03-24T12:43:49.702Z,29.30
2023-03-24T12:46:19.841Z,29.30
2023-03-24T12:49:03.970Z,29.70
2023-03-24T12:51:43.015Z,29.10
2023-03-24T12:54:22.267Z,29.30
2023-03-24T12:57:12.546Z,28.30
2023-03-24T12:59:46.601Z,26.50
2023-03-24T13:02:47.481Z,25.40
2023-03-24T13:05:16.929Z,25.30
2023-03-24T13:07:47.670Z,25.20
2023-03-24T13:10:18.277Z,24.50
2023-03-24T13:12:56.548Z,25.70
2023-03-24T13:15:27.999Z,25.60
2023-03-24T13:18:17.912Z,26.50
2023-03-24T13:20:52.714Z,26.90
2023-03-24T13:23:49.358Z,27.40
2023-03-24T13:26:22.007Z,28.00
2023-03-24T13:28:52.154Z,28.10
2023-03-24T13:31:23.040Z,27.50
2023-03-24T13:33:50.830Z,26.90
2023-03-24T13:36:49.858Z,27.30
2023-03-24T13:39:21.938Z,27.70
2023-03-24T13:41:55.381Z,27.70
2023-03-24T13:44:28.669Z,27.30
2023-03-24T13:47:13.980Z,27.80
2023-03-24T13:49:46.346Z,27.30
2023-03-24T13:52:37.845Z,26.80
2023-03-24T13:55:15.010Z,26.30
2023-03-24T13:57:58.417Z,25.00
2023-03-24T14:00:27.350Z,24.50
2023-03-24T14:03:17.399Z,24.40
2023-03-24T14:06:03.729Z,24.10
2023-03-24T14:08:52.712Z,23.90
2023-03-24T14:11:31.704Z,24.00
2023-03-24T14:14:14.874Z,23.50
2023-03-24T14:16:52.449Z,23.70
2023-03-24T14:19:25.587Z,23.30
2023-03-24T14:22:14.397Z,23.80
2023-03-24T14:24:45.467Z,22.80
2023-03-24T14:27:42.832Z,23.10
2023-03-24T14:30:34.595Z,22.90
2023-03-24T14:33:02.860Z,22.60
2023-03-24T14:35:47.085Z,22.60
2023-03-24T14:38:19.510Z,23.00
2023-03-24T14:40:49.900Z,23.40
2023-03-24T14:43:50.530Z,22.80
2023-03-24T14:46:20.567Z,22.90
2023-03-24T14:48:54.003Z,22.20
2023-03-24T14:51:27.168Z,22.10
2023-03-24T14:53:59.888Z,23.10
2023-03-24T14:56:35.056Z,22.70
2023-03-24T14:59:11.072Z,22.50
2023-03-24T15:01:45.710Z,21.80
2023-03-24T15:04:13.874Z,21.20
2023-03-24T15:06:48.466Z,21.30
2023-03-24T15:09:18.634Z,21.60
2023-03-24T15:11:47.839Z,22.60
2023-03-24T15:14:25.382Z,22.30
2023-03-24T15:17:06.729Z,22.20
2023-03-24T15:19:33.990Z,22.00
2023-03-24T15:22:10.610Z,22.40
2023-03-24T15:24:41.706Z,22.50
2023-03-24T15:27:14.274Z,23.10
2023-03-24T15:29:43.448Z,23.00
2023-03-24T15:32:21.761Z,23.20
2023-03-24T15:34:59.864Z,23.20
2023-03-24T15:37:33.081Z,23.40
2023-03-24T15:40:13.199Z,23.40
2023-03-24T15:42:46.319Z,22.90
2023-03-24T15:45:31.183Z,22.70
2023-03-24T15:48:03.060Z,23.10
2023-03-24T15:50:39.409Z,24.20
2023-03-24T15:53:14.182Z,23.90
2023-03-24T15:55:43.728Z,23.60
2023-03-24T15:58:28.542Z,23.50
2023-03-24T16:01:02.644Z,23.90
2023-03-24T16:03:34.136Z,23.40
2023-03-24T16:06:01.274Z,23.60
2023-03-24T16:08:39.363Z,23.50
2023-03-24T16:11:11.180Z,23.70
2023-03-24T16:13:40.608Z,23.40
2023-03-24T16:16:16.529Z,23.50
2023-03-24T16:18:49.236Z,23.70
2023-03-24T16:21:22.189Z,23.10
2023-03-24T16:23:51.165Z,23.50
2023-03-24T16:26:26.017Z,23.20
2023-03-24T16:28:54.274Z,23.90
2023-03-24T16:31:24.760Z,24.40
2023-03-24T16:33:57.884Z,24.40
2023-03-24T16:36:29.145Z,24.50
2023-03-24T16:38:58.758Z,24.20
2023-03-24T16:41:25.966Z,24.10
2023-03-24T16:43:53.307Z,23.80
2023-03-24T16:46:32.433Z,23.80
2023-03-24T16:49:00.227Z,24.30
2023-03-24T16:51:29.823Z,24.00
2023-03-24T16:53:57.261Z,24.00
2023-03-24T16:56:25.065Z,24.40
2023-03-24T16:58:56.508Z,23.90
2023-03-24T17:01:37.835Z,23.90
2023-03-24T17:04:19.891Z,23.80
2023-03-24T17:06:49.473Z,23.90
2023-03-24T17:09:17.305Z,23.70
2023-03-24T17:11:48.383Z,23.60
2023-03-24T17:14:15.626Z,23.50
2023-03-24T17:16:45.229Z,23.10
2023-03-24T17:19:14.677Z,23.00
2023-03-24T17:22:02.791Z,22.70
2023-03-24T17:24:36.088Z,23.10
2023-03-24T17:27:03.488Z,23.40
2023-03-24T17:29:31.821Z,23.40
2023-03-24T17:31:58.883Z,23.30
2023-03-24T17:34:26.130Z,23.00
2023-03-24T17:36:53.211Z,23.10
2023-03-24T17:39:22.035Z,23.00
2023-03-24T17:41:49.321Z,23.10
2023-03-24T17:44:17.500Z,23.30
2023-03-24T17:46:44.739Z,23.80
2023-03-24T17:49:11.806Z,24.60
2023-03-24T17:51:38.790Z,25.50
2023-03-24T17:54:05.879Z,25.60
2023-03-24T17:56:32.921Z,25.60
2023-03-24T17:59:00.058Z,25.70
2023-03-24T18:01:32.029Z,25.80
2023-03-24T18:03:59.069Z,26.20
2023-03-24T18:06:27.575Z,26.50
2023-03-24T18:08:54.952Z,26.50
2023-03-24T18:11:22.080Z,26.00
2023-03-24T18:13:49.623Z,26.10
2023-03-24T18:16:21.976Z,25.90
2023-03-24T18:18:51.509Z,26.60
2023-03-24T18:21:19.409Z,26.60
2023-03-24T18:23:47.227Z,26.80
2023-03-24T18:26:15.183Z,26.50
2023-03-24T18:28:42.988Z,26.10
2023-03-24T18:31:19.060Z,26.10
2023-03-24T18:33:47.232Z,26.20
2023-03-24T18:36:16.741Z,26.20
2023-03-24T18:38:44.590Z,26.40
2023-03-24T18:41:14.044Z,26.60
2023-03-24T18:43:41.518Z,26.40
2023-03-24T18:46:10.203Z,26.80
2023-03-24T18:48:44.684Z,26.90
2023-03-24T18:51:12.565Z,26.90
2023-03-24T18:53:41.547Z,26.80
2023-03-24T18:56:09.139Z,26.60
2023-03-24T18:58:38.411Z,26.20
2023-03-24T19:01:11.307Z,25.80
2023-03-24T19:03:41.723Z,25.30
2023-03-24T19:06:11.276Z,25.00
2023-03-24T19:08:44.868Z,24.70
2023-03-24T19:11:13.947Z,25.10
2023-03-24T19:13:46.398Z,26.00
2023-03-24T19:16:13.567Z,25.50
2023-03-24T19:18:40.827Z,25.80
2023-03-24T19:21:08.552Z,25.80
2023-03-24T19:23:35.951Z,26.20
2023-03-24T19:26:03.668Z,26.80
2023-03-24T19:28:33.212Z,27.90
2023-03-24T19:31:07.116Z,28.00
2023-03-24T19:33:34.241Z,28.60
2023-03-24T19:36:01.326Z,28.00
2023-03-24T19:38:29.474Z,27.70
2023-03-24T19:40:56.789Z,27.10
2023-03-24T19:43:25.282Z,26.50
2023-03-24T19:45:54.464Z,26.50
2023-03-24T19:48:22.713Z,26.30
2023-03-24T19:50:51.866Z,26.30
2023-03-24T19:53:19.567Z,26.30
2023-03-24T19:55:47.050Z,26.40
2023-03-24T19:58:14.565Z,26.40
2023-03-24T20:00:41.683Z,26.60
2023-03-24T20:03:08.942Z,26.70
2023-03-24T20:05:36.154Z,27.10
2023-03-24T20:08:04.084Z,27.00
2023-03-24T20:10:31.420Z,27.20
2023-03-24T20:12:58.459Z,27.00
2023-03-24T20:15:25.563Z,27.00
2023-03-24T20:17:53.884Z,27.30
2023-03-24T20:20:21.086Z,27.50
2023-03-24T20:22:49.126Z,27.50
2023-03-24T20:25:18.164Z,28.10
2023-03-24T20:27:47.028Z,28.00
2023-03-24T20:30:17.089Z,27.90
2023-03-24T20:32:44.563Z,27.80
2023-03-24T20:35:12.564Z,27.90
2023-03-24T20:37:39.601Z,27.90
2023-03-24T20:40:09.826Z,27.40
2023-03-24T20:42:37.885Z,27.10
2023-03-24T20:45:07.279Z,27.30
2023-03-24T20:47:35.119Z,27.60
2023-03-24T20:50:02.694Z,27.90
2023-03-24T20:52:29.820Z,27.80
2023-03-24T20:54:57.049Z,27.30
2023-03-24T20:57:28.375Z,27.50
2023-03-24T20:59:55.691Z,27.90
2023-03-24T21:02:22.983Z,28.40
2023-03-24T21:04:50.393Z,28.60
2023-03-24T21:07:17.693Z,28.90
2023-03-24T21:09:44.768Z,29.20
2023-03-24T21:12:11.985Z,29.10
2023-03-24T21:14:39.054Z,28.50
2023-03-24T21:17:06.390Z,28.30
2023-03-24T21:19:33.609Z,28.50
2023-03-24T21:22:03.210Z,29.00
2023-03-24T21:24:30.336Z,29.40
2023-03-24T21:26:57.845Z,29.60
2023-03-24T21:29:26.639Z,29.30
2023-03-24T21:31:53.860Z,28.60
2023-03-24T21:34:21.117Z,28.60
2023-03-24T21:36:49.694Z,28.60
2023-03-24T21:39:17.334Z,29.10
2023-03-24T21:41:44.641Z,28.90
2023-03-24T21:44:11.752Z,28.90
2023-03-24T21:46:40.009Z,28.70
2023-03-24T21:49:11.140Z,28.30
2023-03-24T21:51:40.766Z,28.30
2023-03-24T21:54:08.983Z,29.10
2023-03-24T21:56:38.088Z,29.30
2023-03-24T21:59:05.367Z,29.30
2023-03-24T22:01:34.122Z,29.30
2023-03-24T22:04:01.413Z,29.90
2023-03-24T22:06:29.327Z,30.20
2023-03-24T22:08:58.629Z,29.60
2023-03-24T22:11:26.872Z,29.10
2023-03-24T22:13:53.929Z,29.00
2023-03-24T22:16:21.123Z,29.00
2023-03-24T22:18:53.112Z,29.40
2023-03-24T22:21:20.548Z,28.90
2023-03-24T22:23:55.650Z,29.20
2023-03-24T22:26:23.020Z,29.10
2023-03-24T22:28:50.921Z,28.70
2023-03-24T22:31:18.098Z,28.70
2023-03-24T22:33:45.378Z,28.80
2023-03-24T22:36:20.711Z,28.90
2023-03-24T22:38:47.917Z,29.50
2023-03-24T22:41:15.022Z,29.60
2023-03-24T22:43:42.320Z,29.70
2023-03-24T22:46:12.658Z,30.40
2023-03-24T22:48:39.864Z,29.60
2023-03-24T22:51:07.437Z,30.10
2023-03-24T22:53:34.546Z,30.00
2023-03-24T22:56:01.655Z,29.80
2023-03-24T22:58:28.732Z,30.00
2023-03-24T23:00:57.107Z,31.20
2023-03-24T23:03:24.395Z,31.20
2023-03-24T23:05:51.977Z,30.60
2023-03-24T23:08:19.498Z,30.00
2023-03-24T23:10:47.744Z,29.70
2023-03-24T23:13:16.951Z,29.40
2023-03-24T23:15:44.354Z,29.80
2023-03-24T23:18:12.151Z,29.70
2023-03-24T23:20:39.687Z,28.80
2023-03-24T23:23:07.248Z,28.20
2023-03-24T23:25:45.091Z,27.80
2023-03-24T23:28:13.489Z,27.70
2023-03-24T23:30:41.425Z,27.50
2023-03-24T23:33:08.942Z,27.10
2023-03-24T23:35:37.577Z,27.00
2023-03-24T23:38:06.778Z,27.10
2023-03-24T23:40:33.906Z,27.30
2023-03-24T23:43:01.776Z,27.60
2023-03-24T23:45:29.669Z,27.80
2023-03-24T23:47:56.956Z,27.50
2023-03-24T23:50:24.029Z,27.60
2023-03-24T23:52:50.970Z,28.20
2023-03-24T23:55:18.560Z,28.20
2023-03-24T23:57:46.650Z,28.00
